Time;durP1;ratioP1;P1;durP2;ratioP2;P2;SDS_P1;SDS_P2;PMS_P1;PMS_P2;Temp;Humidity;BMP_temperature;BMP_pressure;BME280_temperature;BME280_humidity;BME280_pressure;Samples;Min_cycle;Max_cycle;Signal;HPM_P1;HPM_P2
2021/10/02 00:45:28;;;;;;;7.57;3.08;;;;;;;;;;5052821;28;20366;-52
2021/10/02 00:47:55;;;;;;;7.13;3.08;;;;;;;;;;5053110;28;20017;-52
2021/10/02 00:50:21;;;;;;;5.47;3.17;;;;;;;;;;5053120;28;20128;-52
2021/10/02 00:52:48;;;;;;;4.93;2.90;;;;;;;;;;5053458;28;20060;-52
2021/10/02 00:55:14;;;;;;;9.07;3.63;;;;;;;;;;5052171;28;20371;-52
2021/10/02 00:57:40;;;;;;;7.20;3.17;;;;;;;;;;5053642;28;20083;-52
2021/10/02 01:00:07;;;;;;;9.10;2.63;;;;;;;;;;5052937;28;20029;-52
2021/10/02 01:02:43;;;;;;;7.22;3.25;;;;;;;;;;5053490;28;20055;-52
2021/10/02 01:05:24;;;;;;;7.35;2.67;;;;;;;;;;5052205;28;20021;-52
2021/10/02 01:08:18;;;;;;;7.60;3.28;;;;;;;;;;5052877;28;20037;-52
2021/10/02 01:10:45;;;;;;;7.65;3.85;;;;;;;;;;5052943;28;20178;-52
2021/10/02 01:13:29;;;;;;;6.85;3.38;;;;;;;;;;5053164;28;20025;-52
2021/10/02 01:15:58;;;;;;;13.50;3.17;;;;;;;;;;5052480;28;20021;-52
2021/10/02 01:18:34;;;;;;;8.55;3.65;;;;;;;;;;5052940;28;20516;-52
2021/10/02 01:21:13;;;;;;;6.43;2.85;;;;;;;;;;5053086;28;20024;-52
2021/10/02 01:23:57;;;;;;;7.25;3.60;;;;;;;;;;5052076;28;20025;-52
2021/10/02 01:26:32;;;;;;;7.82;4.13;;;;;;;;;;5052517;28;20435;-52
2021/10/02 01:29:00;;;;;;;9.90;4.70;;;;;;;;;;5052618;28;20037;-51
2021/10/02 01:31:38;;;;;;;11.82;3.50;;;;;;;;;;5052844;28;20054;-52
2021/10/02 01:34:15;;;;;;;9.82;3.90;;;;;;;;;;5052011;28;20451;-52
2021/10/02 01:36:57;;;;;;;6.20;3.58;;;;;;;;;;5052603;28;20033;-52
2021/10/02 01:47:48;;;;;;;6.18;3.45;;;;;;;;;;5032920;28;20060;-52
2021/10/02 01:50:14;;;;;;;7.50;3.05;;;;;;;;;;5036698;28;20083;-52
2021/10/02 01:52:42;;;;;;;7.95;3.20;;;;;;;;;;5048863;28;20021;-52
2021/10/02 01:55:09;;;;;;;6.88;3.70;;;;;;;;;;5051928;28;20368;-52
2021/10/02 01:57:38;;;;;;;5.43;3.10;;;;;;;;;;5048400;28;20053;-52
2021/10/02 02:00:05;;;;;;;9.88;2.92;;;;;;;;;;5032789;28;20341;-51
2021/10/02 02:02:32;;;;;;;5.25;2.70;;;;;;;;;;5032693;28;20391;-52
2021/10/02 02:05:00;;;;;;;5.50;2.95;;;;;;;;;;5031442;28;20037;-52
2021/10/02 02:07:27;;;;;;;5.60;3.17;;;;;;;;;;5032510;28;20026;-52
2021/10/02 02:09:55;;;;;;;3.85;2.90;;;;;;;;;;5031372;28;20095;-52
2021/10/02 02:12:22;;;;;;;7.72;3.10;;;;;;;;;;5032233;28;20026;-52
2021/10/02 02:14:49;;;;;;;10.63;3.67;;;;;;;;;;5031589;28;20038;-52
2021/10/02 02:17:16;;;;;;;7.53;3.05;;;;;;;;;;5034712;28;20018;-52
2021/10/02 02:19:45;;;;;;;4.15;3.13;;;;;;;;;;5035805;28;20025;-52
2021/10/02 02:22:12;;;;;;;7.65;4.00;;;;;;;;;;5036099;28;20461;-52
2021/10/02 02:24:38;;;;;;;5.82;3.10;;;;;;;;;;5034216;28;20029;-52
2021/10/02 02:27:04;;;;;;;11.43;3.83;;;;;;;;;;5036274;28;20026;-52
2021/10/02 02:29:31;;;;;;;10.18;3.67;;;;;;;;;;5035631;28;20064;-52
2021/10/02 02:31:58;;;;;;;6.82;3.13;;;;;;;;;;5036202;28;20021;-52
2021/10/02 02:34:24;;;;;;;4.35;2.80;;;;;;;;;;5035570;28;20109;-52
2021/10/02 02:36:50;;;;;;;6.60;3.67;;;;;;;;;;5035864;28;20030;-52
2021/10/02 02:39:17;;;;;;;7.10;3.78;;;;;;;;;;5036078;28;20025;-52
2021/10/02 02:41:43;;;;;;;6.80;3.55;;;;;;;;;;5035393;28;20064;-52
2021/10/02 02:44:10;;;;;;;8.48;3.30;;;;;;;;;;5034981;28;20438;-52
2021/10/02 02:46:37;;;;;;;4.60;2.40;;;;;;;;;;5035811;28;20026;-52
2021/10/02 02:49:21;;;;;;;6.22;2.63;;;;;;;;;;5030625;28;20489;-52
2021/10/02 02:51:51;;;;;;;9.98;3.88;;;;;;;;;;5035437;28;20395;-52
2021/10/02 02:54:32;;;;;;;6.00;3.35;;;;;;;;;;5034348;28;20032;-52
2021/10/02 02:57:01;;;;;;;6.07;3.45;;;;;;;;;;5035681;28;20455;-52
2021/10/02 02:59:32;;;;;;;7.00;3.17;;;;;;;;;;5035613;28;20021;-52
2021/10/02 03:01:58;;;;;;;;;;;;;;;;;;5036069;28;20079;-52
2021/10/02 03:04:28;;;;;;;6.57;3.50;;;;;;;;;;5034645;28;19905;-52
2021/10/02 03:06:54;;;;;;;7.45;3.80;;;;;;;;;;5035032;28;20109;-52
2021/10/02 03:09:21;;;;;;;9.70;3.67;;;;;;;;;;5035438;28;20022;-52
2021/10/02 03:11:49;;;;;;;9.27;3.78;;;;;;;;;;5035006;28;20036;-51
2021/10/02 03:14:18;;;;;;;6.38;3.28;;;;;;;;;;5034325;28;20021;-52
2021/10/02 03:16:45;;;;;;;10.73;3.88;;;;;;;;;;5035247;28;20064;-52
2021/10/02 03:19:12;;;;;;;7.78;3.88;;;;;;;;;;5035378;28;20280;-52
2021/10/02 03:21:38;;;;;;;6.97;3.60;;;;;;;;;;5034854;28;20044;-52
2021/10/02 03:24:05;;;;;;;6.53;3.65;;;;;;;;;;5034647;28;20033;-52
2021/10/02 03:26:32;;;;;;;7.50;3.42;;;;;;;;;;5035398;28;20060;-52
2021/10/02 03:28:59;;;;;;;6.82;3.58;;;;;;;;;;5034227;28;20025;-52
2021/10/02 03:31:25;;;;;;;7.22;3.80;;;;;;;;;;5035038;28;20033;-52
2021/10/02 03:33:51;;;;;;;8.40;3.60;;;;;;;;;;5033697;28;20032;-52
2021/10/02 03:36:18;;;;;;;6.93;3.33;;;;;;;;;;5035025;28;20168;-52
2021/10/02 03:38:45;;;;;;;7.63;3.85;;;;;;;;;;5034977;28;20017;-52
2021/10/02 03:41:11;;;;;;;8.98;3.85;;;;;;;;;;5034684;28;20025;-52
2021/10/02 03:43:38;;;;;;;8.52;3.50;;;;;;;;;;5034124;28;20032;-52
2021/10/02 03:46:04;;;;;;;7.28;3.40;;;;;;;;;;5034931;28;20474;-52
2021/10/02 03:48:30;;;;;;;11.00;3.58;;;;;;;;;;5034427;28;20033;-51
2021/10/02 03:50:58;;;;;;;12.23;3.38;;;;;;;;;;5034063;28;20096;-52
2021/10/02 03:53:24;;;;;;;7.88;3.30;;;;;;;;;;5034214;28;20025;-52
2021/10/02 03:55:50;;;;;;;6.10;2.70;;;;;;;;;;5033888;28;20473;-52
2021/10/02 03:58:16;;;;;;;6.55;3.72;;;;;;;;;;5035009;28;20104;-52
2021/10/02 04:00:42;;;;;;;8.75;3.53;;;;;;;;;;5034209;28;20332;-51
2021/10/02 04:03:08;;;;;;;9.00;3.97;;;;;;;;;;5034235;28;20034;-52
2021/10/02 04:05:34;;;;;;;9.13;3.70;;;;;;;;;;5033525;28;20096;-52
2021/10/02 04:08:00;;;;;;;6.40;3.92;;;;;;;;;;5034099;28;20534;-52
2021/10/02 04:10:26;;;;;;;6.28;3.35;;;;;;;;;;5034079;28;20025;-52
2021/10/02 04:12:52;;;;;;;9.18;3.65;;;;;;;;;;5034543;28;20025;-52
2021/10/02 04:15:18;;;;;;;7.32;3.80;;;;;;;;;;5033417;28;20354;-52
2021/10/02 04:17:44;;;;;;;8.30;4.30;;;;;;;;;;5033549;28;20451;-52
2021/10/02 04:20:10;;;;;;;4.57;2.97;;;;;;;;;;5033815;28;20033;-52
2021/10/02 04:22:36;;;;;;;6.93;3.45;;;;;;;;;;5033927;28;20521;-52
2021/10/02 04:25:03;;;;;;;6.90;3.70;;;;;;;;;;5033281;28;20108;-52
2021/10/02 04:27:29;;;;;;;7.25;3.72;;;;;;;;;;5033828;28;20105;-52
2021/10/02 04:29:55;;;;;;;5.78;3.35;;;;;;;;;;5033339;28;20141;-52
2021/10/02 04:32:21;;;;;;;11.77;4.25;;;;;;;;;;5033856;28;20028;-52
2021/10/02 04:34:47;;;;;;;6.57;4.30;;;;;;;;;;5032970;28;20025;-52
2021/10/02 04:37:13;;;;;;;6.85;3.95;;;;;;;;;;5033736;28;20071;-52
2021/10/02 04:39:39;;;;;;;7.00;3.95;;;;;;;;;;5032728;28;20030;-52
2021/10/02 04:42:05;;;;;;;6.97;3.88;;;;;;;;;;5033732;28;20021;-52
2021/10/02 04:44:32;;;;;;;9.65;4.43;;;;;;;;;;5033515;28;20025;-52
2021/10/02 04:46:58;;;;;;;8.25;3.75;;;;;;;;;;5033048;28;20109;-52
2021/10/02 04:49:24;;;;;;;13.65;5.25;;;;;;;;;;5033213;28;20044;-52
2021/10/02 04:51:50;;;;;;;7.95;3.95;;;;;;;;;;5033140;28;20030;-52
2021/10/02 04:54:16;;;;;;;9.48;4.35;;;;;;;;;;5033039;28;20021;-52
2021/10/02 04:56:42;;;;;;;6.72;4.03;;;;;;;;;;5033212;28;20053;-52
2021/10/02 04:59:08;;;;;;;8.40;4.22;;;;;;;;;;5033208;28;20037;-52
2021/10/02 05:01:34;;;;;;;7.00;4.25;;;;;;;;;;5033075;28;20041;-51
2021/10/02 05:04:01;;;;;;;11.82;4.40;;;;;;;;;;5032826;28;20033;-52
2021/10/02 05:06:28;;;;;;;10.52;4.50;;;;;;;;;;5033501;28;20468;-52
2021/10/02 05:08:54;;;;;;;7.95;4.30;;;;;;;;;;5033144;28;20110;-52
2021/10/02 05:11:20;;;;;;;16.75;4.78;;;;;;;;;;5033457;28;20061;-52
2021/10/02 05:13:46;;;;;;;9.30;4.85;;;;;;;;;;5032293;28;20036;-52
2021/10/02 05:16:12;;;;;;;6.97;4.20;;;;;;;;;;5032907;28;20029;-52
2021/10/02 05:18:38;;;;;;;8.50;5.03;;;;;;;;;;5033163;28;20064;-51
2021/10/02 05:21:04;;;;;;;8.95;5.20;;;;;;;;;;5033270;28;20049;-52
2021/10/02 05:23:30;;;;;;;9.05;4.82;;;;;;;;;;5032042;28;20490;-52
2021/10/02 05:25:56;;;;;;;8.38;4.20;;;;;;;;;;5032608;28;20033;-52
2021/10/02 05:28:23;;;;;;;7.50;4.60;;;;;;;;;;5032490;28;20037;-52
2021/10/02 05:30:49;;;;;;;10.13;4.70;;;;;;;;;;5033082;28;20087;-52
2021/10/02 05:33:15;;;;;;;10.57;4.78;;;;;;;;;;5033095;28;20422;-52
2021/10/02 05:35:42;;;;;;;8.73;4.28;;;;;;;;;;5031862;28;20498;-52
2021/10/02 05:38:08;;;;;;;9.98;4.85;;;;;;;;;;5033164;28;20419;-52
2021/10/02 05:40:34;;;;;;;11.55;4.30;;;;;;;;;;5032561;28;20390;-52
2021/10/02 05:43:02;;;;;;;9.15;4.57;;;;;;;;;;5032621;28;20498;-52
2021/10/02 05:45:29;;;;;;;12.32;4.75;;;;;;;;;;5031904;28;20033;-52
2021/10/02 05:47:55;;;;;;;10.70;5.10;;;;;;;;;;5032614;28;20021;-52
2021/10/02 05:50:21;;;;;;;15.88;5.43;;;;;;;;;;5033458;28;20328;-52
2021/10/02 05:52:47;;;;;;;10.02;5.10;;;;;;;;;;5037120;28;20018;-52
2021/10/02 05:55:13;;;;;;;10.50;5.03;;;;;;;;;;5035888;28;20367;-52
2021/10/02 05:57:39;;;;;;;9.98;4.05;;;;;;;;;;5036347;28;20022;-52
2021/10/02 06:00:07;;;;;;;7.47;4.03;;;;;;;;;;5036963;28;20029;-52
2021/10/02 06:02:33;;;;;;;12.80;4.95;;;;;;;;;;5036423;28;20028;-52
2021/10/02 06:04:59;;;;;;;10.35;3.50;;;;;;;;;;5035631;28;20029;-52
2021/10/02 06:07:25;;;;;;;8.90;3.72;;;;;;;;;;5036292;28;20398;-53
2021/10/02 06:09:51;;;;;;;9.35;3.30;;;;;;;;;;5036422;28;20033;-52
2021/10/02 06:12:18;;;;;;;5.20;3.10;;;;;;;;;;5036383;28;20026;-52
2021/10/02 06:14:44;;;;;;;7.55;2.75;;;;;;;;;;5035595;28;20480;-52
2021/10/02 06:17:10;;;;;;;4.63;2.78;;;;;;;;;;5035903;28;20533;-52
2021/10/02 06:19:36;;;;;;;9.63;3.60;;;;;;;;;;5036304;28;20025;-52
2021/10/02 06:22:02;;;;;;;6.75;2.90;;;;;;;;;;5036083;28;20083;-52
2021/10/02 06:24:28;;;;;;;5.00;2.80;;;;;;;;;;5035496;28;20029;-52
2021/10/02 06:26:54;;;;;;;8.40;3.65;;;;;;;;;;5035543;28;20525;-51
2021/10/02 06:29:21;;;;;;;7.57;3.80;;;;;;;;;;5036131;28;20401;-52
2021/10/02 06:31:47;;;;;;;9.43;4.22;;;;;;;;;;5035836;28;20026;-52
2021/10/02 06:34:14;;;;;;;8.00;3.92;;;;;;;;;;5035377;28;20032;-51
2021/10/02 06:36:40;;;;;;;7.68;3.75;;;;;;;;;;5036135;28;20033;-52
2021/10/02 06:39:06;;;;;;;7.45;3.58;;;;;;;;;;5035792;28;20053;-52
2021/10/02 06:41:32;;;;;;;12.07;3.95;;;;;;;;;;5035516;28;20036;-51
2021/10/02 06:43:58;;;;;;;9.90;3.80;;;;;;;;;;5035509;28;20359;-52
2021/10/02 06:46:24;;;;;;;6.05;3.72;;;;;;;;;;5035938;28;20026;-52
2021/10/02 06:48:50;;;;;;;10.90;4.22;;;;;;;;;;5035768;28;20471;-52
2021/10/02 06:51:16;;;;;;;9.20;3.80;;;;;;;;;;5035241;28;20083;-52
2021/10/02 06:53:42;;;;;;;12.93;3.97;;;;;;;;;;5034958;28;20466;-52
2021/10/02 06:56:08;;;;;;;13.80;4.97;;;;;;;;;;5035496;28;20029;-52
2021/10/02 06:58:34;;;;;;;10.50;4.90;;;;;;;;;;5035809;28;20517;-52
2021/10/02 07:01:00;;;;;;;9.18;3.10;;;;;;;;;;5035621;28;20025;-52
2021/10/02 07:03:26;;;;;;;6.18;3.88;;;;;;;;;;5034462;28;20108;-52
2021/10/02 07:05:52;;;;;;;8.20;4.10;;;;;;;;;;5035347;28;20029;-52
2021/10/02 07:08:18;;;;;;;13.75;4.65;;;;;;;;;;5035578;28;20025;-52
2021/10/02 07:10:44;;;;;;;8.90;4.72;;;;;;;;;;5035195;28;20056;-52
2021/10/02 07:13:10;;;;;;;26.02;6.53;;;;;;;;;;5035310;28;20072;-52
2021/10/02 07:15:36;;;;;;;8.30;5.03;;;;;;;;;;5034587;28;20029;-52
2021/10/02 07:18:02;;;;;;;10.02;4.80;;;;;;;;;;5035210;28;20018;-52
2021/10/02 07:20:29;;;;;;;9.32;4.93;;;;;;;;;;5035185;28;20026;-52
2021/10/02 07:22:55;;;;;;;7.47;3.80;;;;;;;;;;5035286;28;20037;-52
2021/10/02 07:25:25;;;;;;;7.72;4.28;;;;;;;;;;5034568;28;20025;-52
2021/10/02 07:27:51;;;;;;;8.55;4.50;;;;;;;;;;5034434;28;20395;-52
2021/10/02 07:30:17;;;;;;;7.07;4.45;;;;;;;;;;5035156;28;20040;-52
2021/10/02 07:32:44;;;;;;;8.52;4.88;;;;;;;;;;5034787;28;20026;-52
2021/10/02 07:35:11;;;;;;;9.60;4.45;;;;;;;;;;5034214;28;20033;-52
2021/10/02 07:37:37;;;;;;;7.60;4.15;;;;;;;;;;5034854;28;20159;-52
2021/10/02 07:40:03;;;;;;;9.20;4.30;;;;;;;;;;5034680;28;20034;-52
2021/10/02 07:42:30;;;;;;;12.40;5.28;;;;;;;;;;5034574;28;20053;-52
2021/10/02 07:44:58;;;;;;;8.70;4.63;;;;;;;;;;5034303;28;20111;-52
2021/10/02 07:47:25;;;;;;;10.15;5.03;;;;;;;;;;5034650;28;20041;-52
2021/10/02 07:49:51;;;;;;;8.88;3.20;;;;;;;;;;5034199;28;20458;-52
2021/10/02 07:52:20;;;;;;;8.32;4.32;;;;;;;;;;5049395;28;20496;-52
2021/10/02 07:54:46;;;;;;;8.35;4.72;;;;;;;;;;5053414;28;20435;-52
2021/10/02 07:57:12;;;;;;;8.20;4.88;;;;;;;;;;5054527;28;20111;-52
2021/10/02 07:59:38;;;;;;;7.13;4.80;;;;;;;;;;5035202;28;20117;-52
2021/10/02 08:02:06;;;;;;;9.55;5.53;;;;;;;;;;5034195;28;20439;-52
2021/10/02 08:04:33;;;;;;;13.60;5.05;;;;;;;;;;5033511;28;20029;-52
2021/10/02 08:06:59;;;;;;;6.85;3.42;;;;;;;;;;5034120;28;20075;-52
2021/10/02 08:09:28;;;;;;;7.80;4.13;;;;;;;;;;5032330;28;20294;-52
2021/10/02 08:11:54;;;;;;;9.67;4.73;;;;;;;;;;5034389;28;20025;-52
2021/10/02 08:14:20;;;;;;;14.52;5.47;;;;;;;;;;5033403;28;20049;-52
2021/10/02 08:16:47;;;;;;;9.95;5.72;;;;;;;;;;5033863;28;20072;-52
2021/10/02 08:19:14;;;;;;;7.82;4.18;;;;;;;;;;5033345;28;20356;-52
2021/10/02 08:21:41;;;;;;;8.82;5.00;;;;;;;;;;5033964;28;20033;-52
2021/10/02 08:24:07;;;;;;;9.45;5.22;;;;;;;;;;5033366;28;20032;-52
2021/10/02 08:26:33;;;;;;;7.30;4.22;;;;;;;;;;5033916;28;20034;-52
2021/10/02 08:29:02;;;;;;;10.63;4.72;;;;;;;;;;5033345;28;20068;-52
2021/10/02 08:31:28;;;;;;;10.25;5.38;;;;;;;;;;5033945;28;20094;-52
2021/10/02 08:33:54;;;;;;;10.02;5.03;;;;;;;;;;5032939;28;20033;-52
2021/10/02 08:36:20;;;;;;;14.50;5.88;;;;;;;;;;5034058;28;20025;-53
2021/10/02 08:38:46;;;;;;;9.25;4.15;;;;;;;;;;5033845;28;20036;-52
2021/10/02 08:41:15;;;;;;;38.63;5.50;;;;;;;;;;5033441;28;20064;-52
2021/10/02 08:43:41;;;;;;;54.53;8.27;;;;;;;;;;5032493;28;20033;-52
2021/10/02 08:46:09;;;;;;;9.35;4.32;;;;;;;;;;5033549;28;20407;-52
2021/10/02 08:48:35;;;;;;;9.27;4.55;;;;;;;;;;5032709;28;20100;-52
2021/10/02 08:51:02;;;;;;;8.68;4.40;;;;;;;;;;5033291;28;20041;-52
2021/10/02 08:53:33;;;;;;;10.32;5.40;;;;;;;;;;5032875;28;20017;-52
2021/10/02 08:56:00;;;;;;;11.35;5.20;;;;;;;;;;5033756;28;20036;-52
2021/10/02 08:58:26;;;;;;;7.65;4.15;;;;;;;;;;5033028;28;20436;-52
2021/10/02 09:00:52;;;;;;;13.95;6.82;;;;;;;;;;5033077;28;20447;-52
2021/10/02 09:03:22;;;;;;;14.25;7.75;;;;;;;;;;5033187;28;20033;-52
2021/10/02 09:05:48;;;;;;;12.07;5.50;;;;;;;;;;5032437;28;20128;-52
2021/10/02 09:08:14;;;;;;;14.05;7.38;;;;;;;;;;5033538;28;20021;-52
2021/10/02 09:10:40;;;;;;;12.95;5.18;;;;;;;;;;5033263;28;20363;-52
2021/10/02 09:13:07;;;;;;;16.67;6.43;;;;;;;;;;5033033;28;20028;-52
2021/10/02 09:15:33;;;;;;;11.57;4.95;;;;;;;;;;5031589;28;20033;-52
2021/10/02 09:18:00;;;;;;;10.07;4.60;;;;;;;;;;5033169;28;20149;-51
2021/10/02 09:20:26;;;;;;;25.38;6.82;;;;;;;;;;5033375;28;20026;-50
2021/10/02 09:22:53;;;;;;;9.75;5.18;;;;;;;;;;5032782;28;20048;-51
2021/10/02 09:25:19;;;;;;;10.68;5.25;;;;;;;;;;5032036;28;20057;-51
2021/10/02 09:27:45;;;;;;;7.82;4.20;;;;;;;;;;5033018;28;20072;-51
2021/10/02 09:30:14;;;;;;;6.90;4.53;;;;;;;;;;5032336;28;20451;-50
2021/10/02 09:32:41;;;;;;;11.40;5.28;;;;;;;;;;5033077;28;20025;-50
2021/10/02 09:35:10;;;;;;;13.63;5.50;;;;;;;;;;5031926;28;20025;-51
2021/10/02 09:37:37;;;;;;;19.98;5.80;;;;;;;;;;5032901;28;20025;-50
2021/10/02 09:40:17;;;;;;;22.20;7.72;;;;;;;;;;5033304;28;20029;-50
2021/10/02 09:42:45;;;;;;;23.17;8.50;;;;;;;;;;5032591;28;20034;-51
2021/10/02 09:45:16;;;;;;;20.42;7.45;;;;;;;;;;5032236;28;20025;-50
2021/10/02 09:47:43;;;;;;;18.13;6.97;;;;;;;;;;5033096;28;20034;-51
2021/10/02 09:50:16;;;;;;;15.60;6.25;;;;;;;;;;5032483;28;20362;-50
2021/10/02 09:52:56;;;;;;;18.67;7.35;;;;;;;;;;5032605;28;20022;-51
2021/10/02 09:55:26;;;;;;;22.33;7.20;;;;;;;;;;5032227;28;20030;-51
2021/10/02 09:57:54;;;;;;;19.85;7.13;;;;;;;;;;5032736;28;20025;-51
2021/10/02 10:00:24;;;;;;;16.02;6.28;;;;;;;;;;5032546;28;20464;-51
2021/10/02 10:02:50;;;;;;;13.37;5.93;;;;;;;;;;5032830;28;20033;-51
2021/10/02 10:05:16;;;;;;;14.65;5.50;;;;;;;;;;5031892;28;20335;-51
2021/10/02 10:07:51;;;;;;;15.52;5.90;;;;;;;;;;5032948;28;20625;-50
2021/10/02 10:10:17;;;;;;;9.60;5.70;;;;;;;;;;5032733;28;20359;-51
2021/10/02 10:12:43;;;;;;;12.70;5.03;;;;;;;;;;5032513;28;20470;-50
2021/10/02 10:15:30;;;;;;;19.80;7.15;;;;;;;;;;5031841;28;20025;-51
2021/10/02 10:17:56;;;;;;;11.43;6.15;;;;;;;;;;5032588;28;20026;-51
2021/10/02 10:20:33;;;;;;;12.68;5.50;;;;;;;;;;5032621;28;20025;-54
2021/10/02 10:22:59;;;;;;;20.08;6.05;;;;;;;;;;5032593;28;20069;-54
2021/10/02 10:25:25;;;;;;;292.55;23.05;;;;;;;;;;5031637;28;20367;-51
2021/10/02 10:27:51;;;;;;;38.67;7.45;;;;;;;;;;5032366;28;20064;-51
2021/10/02 10:30:22;;;;;;;35.45;7.93;;;;;;;;;;5031890;28;20033;-51
2021/10/02 10:32:56;;;;;;;43.80;7.65;;;;;;;;;;5032595;28;20036;-50
2021/10/02 10:35:23;;;;;;;34.97;7.70;;;;;;;;;;5031355;28;20517;-51
2021/10/02 10:37:49;;;;;;;21.50;6.13;;;;;;;;;;5033911;28;20041;-51
2021/10/02 10:40:15;;;;;;;16.27;5.95;;;;;;;;;;5035832;28;20069;-50
2021/10/02 10:42:41;;;;;;;12.57;6.05;;;;;;;;;;5035862;28;20029;-51
2021/10/02 10:45:07;;;;;;;11.18;5.35;;;;;;;;;;5034906;28;20025;-51
2021/10/02 10:47:34;;;;;;;16.80;6.88;;;;;;;;;;5035705;28;20097;-51
2021/10/02 10:50:00;;;;;;;12.20;6.00;;;;;;;;;;5035856;28;20090;-50
2021/10/02 10:52:26;;;;;;;12.60;6.78;;;;;;;;;;5035868;28;20026;-51
2021/10/02 10:54:53;;;;;;;13.88;6.35;;;;;;;;;;5034714;28;20179;-51
2021/10/02 10:57:35;;;;;;;10.60;6.82;;;;;;;;;;5036060;28;20022;-51
2021/10/02 11:00:05;;;;;;;15.35;6.68;;;;;;;;;;5035995;28;20087;-51
2021/10/02 11:02:41;;;;;;;11.82;6.82;;;;;;;;;;5035861;28;20030;-51
2021/10/02 11:05:27;;;;;;;14.52;6.18;;;;;;;;;;5034842;28;20053;-50
2021/10/02 11:07:53;;;;;;;12.40;4.95;;;;;;;;;;5035024;28;20022;-51
2021/10/02 11:10:38;;;;;;;12.00;6.88;;;;;;;;;;5035450;28;20041;-51
2021/10/02 11:13:04;;;;;;;13.57;6.75;;;;;;;;;;5035488;28;20068;-50
2021/10/02 11:15:31;;;;;;;12.88;5.68;;;;;;;;;;5033414;28;20029;-50
2021/10/02 11:17:56;;;;;;;14.48;6.55;;;;;;;;;;5035062;28;20033;-51
2021/10/02 11:20:36;;;;;;;13.07;7.18;;;;;;;;;;5034638;28;20034;-50
2021/10/02 11:23:20;;;;;;;13.50;6.25;;;;;;;;;;5035591;28;20462;-51
2021/10/02 11:25:46;;;;;;;12.63;6.78;;;;;;;;;;5034290;28;20096;-50
2021/10/02 11:28:21;;;;;;;17.02;6.53;;;;;;;;;;5035255;28;20033;-51
2021/10/02 11:30:48;;;;;;;9.07;5.65;;;;;;;;;;5034382;28;20072;-50
2021/10/02 11:33:33;;;;;;;18.38;7.03;;;;;;;;;;5034794;28;20079;-51
2021/10/02 11:36:00;;;;;;;10.93;5.47;;;;;;;;;;5034569;28;20432;-51
2021/10/02 11:38:38;;;;;;;10.50;5.82;;;;;;;;;;5035375;28;20068;-50
2021/10/02 11:41:24;;;;;;;10.65;5.20;;;;;;;;;;5035090;28;20060;-51
2021/10/02 11:43:54;;;;;;;14.80;6.00;;;;;;;;;;5034100;28;20032;-50
2021/10/02 11:46:25;;;;;;;8.48;4.45;;;;;;;;;;5034650;28;20459;-50
2021/10/02 11:48:51;;;;;;;131.57;9.05;;;;;;;;;;5034288;28;20104;-51
2021/10/02 11:51:20;;;;;;;6.85;3.97;;;;;;;;;;5034704;28;20506;-51
2021/10/02 11:53:47;;;;;;;20.23;4.03;;;;;;;;;;5033488;28;20523;-51
2021/10/02 11:56:18;;;;;;;8.57;5.05;;;;;;;;;;5034406;28;20359;-51
2021/10/02 11:58:44;;;;;;;13.40;3.67;;;;;;;;;;5034854;28;20080;-50
2021/10/02 12:01:18;;;;;;;11.07;4.43;;;;;;;;;;5034629;28;20099;-50
2021/10/02 12:03:44;;;;;;;12.80;5.38;;;;;;;;;;5033619;28;20025;-51
2021/10/02 12:06:10;;;;;;;8.75;4.70;;;;;;;;;;5032683;28;20032;-51
2021/10/02 12:08:38;;;;;;;9.65;4.63;;;;;;;;;;5034251;28;20080;-50
2021/10/02 12:11:05;;;;;;;8.05;4.57;;;;;;;;;;5034371;28;20068;-51
2021/10/02 12:13:31;;;;;;;9.07;3.83;;;;;;;;;;5033515;28;20025;-51
2021/10/02 12:16:11;;;;;;;7.95;4.55;;;;;;;;;;5034127;28;20057;-50
2021/10/02 12:18:44;;;;;;;8.95;4.60;;;;;;;;;;5033984;28;20104;-51
2021/10/02 12:21:28;;;;;;;9.07;3.70;;;;;;;;;;5033803;28;20029;-50
2021/10/02 12:23:56;;;;;;;10.20;4.15;;;;;;;;;;5032837;28;20494;-50
2021/10/02 12:26:23;;;;;;;10.48;3.50;;;;;;;;;;5034003;28;20521;-51
2021/10/02 12:28:55;;;;;;;6.22;3.53;;;;;;;;;;5033806;28;20057;-51
2021/10/02 12:31:21;;;;;;;5.97;2.85;;;;;;;;;;5033632;28;20048;-51
2021/10/02 12:33:47;;;;;;;9.25;3.80;;;;;;;;;;5033294;28;20025;-51
2021/10/02 12:36:13;;;;;;;4.18;2.47;;;;;;;;;;5033324;28;20511;-51
2021/10/02 12:38:43;;;;;;;6.90;3.15;;;;;;;;;;5033555;28;20057;-51
2021/10/02 12:41:09;;;;;;;8.30;3.97;;;;;;;;;;5033558;28;20439;-51
2021/10/02 12:43:35;;;;;;;6.13;3.00;;;;;;;;;;5032814;28;20036;-51
2021/10/02 12:46:01;;;;;;;7.28;3.17;;;;;;;;;;5033250;28;20521;-51
2021/10/02 12:48:27;;;;;;;6.75;2.78;;;;;;;;;;5033455;28;20108;-51
2021/10/02 12:50:54;;;;;;;8.73;3.00;;;;;;;;;;5033277;28;20036;-50
2021/10/02 12:53:20;;;;;;;13.57;3.50;;;;;;;;;;5033109;28;20443;-50
2021/10/02 12:55:47;;;;;;;6.78;3.15;;;;;;;;;;5032986;28;20036;-51
2021/10/02 12:58:13;;;;;;;5.00;2.97;;;;;;;;;;5033244;28;20022;-51
2021/10/02 13:00:39;;;;;;;7.18;3.45;;;;;;;;;;5032594;28;20022;-51
2021/10/02 13:03:06;;;;;;;5.63;3.38;;;;;;;;;;5033558;28;20021;-51
2021/10/02 13:05:36;;;;;;;5.20;2.70;;;;;;;;;;5032446;28;20026;-50
2021/10/02 13:08:03;;;;;;;7.82;3.20;;;;;;;;;;5032937;28;20372;-52
2021/10/02 13:10:35;;;;;;;4.47;3.20;;;;;;;;;;5032834;28;20041;-52
2021/10/02 13:13:02;;;;;;;5.53;3.17;;;;;;;;;;5032886;28;20418;-52
2021/10/02 13:15:30;;;;;;;5.72;3.08;;;;;;;;;;5032451;28;20347;-52
2021/10/02 13:18:10;;;;;;;5.75;3.30;;;;;;;;;;5032843;28;20112;-52
2021/10/02 13:20:56;;;;;;;5.05;3.17;;;;;;;;;;5033004;28;20034;-53
2021/10/02 13:23:33;;;;;;;5.63;3.17;;;;;;;;;;5032851;28;20033;-52
2021/10/02 13:26:01;;;;;;;7.22;2.92;;;;;;;;;;5032517;28;20029;-52
2021/10/02 13:28:29;;;;;;;7.72;3.63;;;;;;;;;;5033096;28;20026;-52
2021/10/02 13:30:58;;;;;;;8.35;4.10;;;;;;;;;;5032617;28;20049;-52
2021/10/02 13:33:24;;;;;;;5.57;3.20;;;;;;;;;;5033239;28;20024;-53
2021/10/02 13:35:52;;;;;;;6.07;3.20;;;;;;;;;;5031243;28;20053;-52
2021/10/02 13:38:28;;;;;;;7.35;3.08;;;;;;;;;;5033187;28;20018;-52
2021/10/02 13:40:54;;;;;;;5.18;3.10;;;;;;;;;;5032747;28;20025;-52
2021/10/02 13:43:21;;;;;;;3.75;2.38;;;;;;;;;;5033042;28;20074;-52
2021/10/02 13:45:52;;;;;;;5.38;2.97;;;;;;;;;;5032424;28;20061;-52
2021/10/02 13:48:23;;;;;;;5.93;2.95;;;;;;;;;;5032445;28;20367;-52
2021/10/02 13:50:49;;;;;;;6.22;2.88;;;;;;;;;;5033132;28;20065;-52
2021/10/02 13:53:16;;;;;;;6.28;2.50;;;;;;;;;;5046292;28;20055;-52
2021/10/02 13:55:42;;;;;;;12.52;3.70;;;;;;;;;;5051987;28;20033;-52
2021/10/02 13:58:10;;;;;;;3.92;2.42;;;;;;;;;;5051780;28;20121;-52
2021/10/02 14:00:36;;;;;;;8.88;3.45;;;;;;;;;;5032568;28;20394;-52
2021/10/02 14:03:02;;;;;;;6.53;2.85;;;;;;;;;;5032664;28;20376;-53
2021/10/02 14:05:28;;;;;;;11.50;3.22;;;;;;;;;;5031724;28;20072;-52
2021/10/02 14:07:55;;;;;;;6.05;3.15;;;;;;;;;;5032417;28;20485;-52
2021/10/02 14:10:21;;;;;;;4.82;2.92;;;;;;;;;;5030382;28;20061;-52
2021/10/02 14:12:49;;;;;;;8.38;3.40;;;;;;;;;;5035704;28;20029;-52
2021/10/02 14:15:15;;;;;;;8.15;3.83;;;;;;;;;;5035857;28;20029;-52
2021/10/02 14:17:41;;;;;;;3.72;2.45;;;;;;;;;;5036553;28;20026;-52
2021/10/02 14:20:09;;;;;;;5.07;3.05;;;;;;;;;;5036269;28;20482;-52
2021/10/02 14:22:35;;;;;;;16.48;4.32;;;;;;;;;;5035793;28;20026;-52
2021/10/02 14:25:01;;;;;;;18.15;4.00;;;;;;;;;;5035327;28;20123;-52
2021/10/02 14:27:27;;;;;;;7.03;3.58;;;;;;;;;;5036059;28;20459;-53
2021/10/02 14:29:53;;;;;;;7.28;4.00;;;;;;;;;;5036240;28;20394;-51
2021/10/02 14:32:19;;;;;;;6.53;2.83;;;;;;;;;;5035736;28;20515;-52
2021/10/02 14:34:46;;;;;;;3.72;2.80;;;;;;;;;;5035322;28;20137;-52
2021/10/02 14:37:14;;;;;;;5.22;3.15;;;;;;;;;;5035869;28;20030;-52
2021/10/02 14:39:40;;;;;;;4.72;3.25;;;;;;;;;;5036436;28;20048;-52
2021/10/02 14:42:06;;;;;;;5.18;3.10;;;;;;;;;;5035785;28;20436;-52
2021/10/02 14:44:32;;;;;;;4.82;2.53;;;;;;;;;;5035236;28;20041;-52
2021/10/02 14:46:58;;;;;;;13.82;2.92;;;;;;;;;;5035804;28;20022;-53
2021/10/02 14:49:25;;;;;;;3.05;1.88;;;;;;;;;;5035512;28;20108;-51
2021/10/02 14:51:51;;;;;;;10.43;2.70;;;;;;;;;;5035650;28;20213;-52
2021/10/02 14:54:21;;;;;;;35.42;3.03;;;;;;;;;;5035339;28;20416;-51
2021/10/02 14:56:49;;;;;;;4.43;2.47;;;;;;;;;;5035893;28;20048;-52
2021/10/02 14:59:17;;;;;;;5.50;2.92;;;;;;;;;;5035497;28;20093;-52
2021/10/02 15:01:46;;;;;;;4.60;2.63;;;;;;;;;;5035349;28;20029;-52
2021/10/02 15:04:12;;;;;;;5.07;2.80;;;;;;;;;;5035170;28;20125;-52
2021/10/02 15:06:39;;;;;;;6.65;3.53;;;;;;;;;;5035683;28;20025;-52
2021/10/02 15:09:05;;;;;;;3.42;2.50;;;;;;;;;;5035441;28;20029;-52
2021/10/02 15:11:31;;;;;;;5.93;2.90;;;;;;;;;;5035279;28;20360;-52
2021/10/02 15:13:58;;;;;;;2.75;2.10;;;;;;;;;;5033821;28;20017;-52
2021/10/02 15:16:24;;;;;;;6.03;2.53;;;;;;;;;;5035086;28;20029;-51
2021/10/02 15:18:50;;;;;;;3.72;2.28;;;;;;;;;;5035106;28;20112;-51
2021/10/02 15:21:17;;;;;;;3.95;2.28;;;;;;;;;;5035590;28;20105;-52
2021/10/02 15:23:50;;;;;;;4.75;2.38;;;;;;;;;;5033207;28;20405;-52
2021/10/02 15:26:18;;;;;;;3.00;2.33;;;;;;;;;;5035573;28;20028;-51
2021/10/02 15:28:47;;;;;;;6.13;2.10;;;;;;;;;;5034647;28;20485;-51
2021/10/02 15:31:13;;;;;;;4.15;2.35;;;;;;;;;;5034993;28;20332;-52
2021/10/02 15:33:39;;;;;;;7.32;2.42;;;;;;;;;;5034223;28;20033;-52
2021/10/02 15:36:06;;;;;;;3.75;2.50;;;;;;;;;;5034927;28;20104;-51